Time;durP1;ratioP1;P1;durP2;ratioP2;P2;SDS_P1;SDS_P2;PMS_P1;PMS_P2;Temp;Humidity;BMP_temperature;BMP_pressure;BME280_temperature;BME280_humidity;BME280_pressure;Samples;Min_cycle;Max_cycle;Signal;HPM_P1;HPM_P2
2021/09/28 00:00:13;;;;;;;;;11.33;11.33;;;;;12.20;77.53;101868.16;5053093;28;45530;-79
2021/09/28 00:02:39;;;;;;;;;11.33;9.67;;;;;12.23;77.50;101883.00;5058189;28;45645;-79
2021/09/28 00:05:06;;;;;;;;;11.33;10.67;;;;;12.14;77.56;101875.94;5050963;28;45433;-80
2021/09/28 00:07:32;;;;;;;;;11.00;10.00;;;;;12.11;77.57;101869.94;5052993;28;45351;-79
2021/09/28 00:09:57;;;;;;;;;10.67;10.00;;;;;12.14;77.57;101878.59;5053600;28;45291;-80
2021/09/28 00:12:23;;;;;;;;;9.33;9.33;;;;;12.07;77.53;101868.59;5054907;28;45241;-80
2021/09/28 00:14:49;;;;;;;;;11.33;11.33;;;;;12.11;77.58;101887.75;5052645;28;46227;-80
2021/09/28 00:17:14;;;;;;;;;12.00;9.67;;;;;12.07;77.93;101878.41;5055915;28;45461;-79
2021/09/28 00:19:40;;;;;;;;;8.33;8.00;;;;;12.06;77.50;101874.03;5050918;28;45473;-79
2021/09/28 00:22:07;;;;;;;;;10.67;9.33;;;;;12.03;78.15;101885.81;5057246;28;45448;-79
2021/09/28 00:24:35;;;;;;;;;11.00;9.33;;;;;12.03;78.14;101874.34;5054902;28;45881;-79
2021/09/28 00:27:01;;;;;;;;;8.00;8.00;;;;;12.07;78.16;101879.25;5058045;28;45441;-80
2021/09/28 00:29:27;;;;;;;;;13.00;11.00;;;;;12.10;78.23;101889.56;5057232;28;45421;-80
2021/09/28 00:31:53;;;;;;;;;9.00;9.00;;;;;12.11;78.00;101887.75;5065314;27;45303;-80
2021/09/28 00:34:19;;;;;;;;;10.33;9.33;;;;;12.09;78.09;101889.75;5055601;28;45969;-79
2021/09/28 00:36:45;;;;;;;;;11.67;10.67;;;;;12.15;77.86;101896.28;5052115;28;45498;-80
2021/09/28 00:39:11;;;;;;;;;11.00;10.33;;;;;12.16;78.15;101895.28;5056423;28;45377;-79
2021/09/28 00:41:36;;;;;;;;;9.33;9.33;;;;;12.09;78.56;101890.56;5057652;28;45387;-80
2021/09/28 00:44:02;;;;;;;;;9.33;9.33;;;;;12.15;78.09;101896.28;5058222;28;46363;-80
2021/09/28 00:46:28;;;;;;;;;9.00;9.00;;;;;12.10;78.20;101883.41;5057816;28;45704;-79
2021/09/28 00:48:53;;;;;;;;;8.67;8.67;;;;;12.17;78.30;101903.13;5057711;28;45328;-80
2021/09/28 00:51:20;;;;;;;;;9.67;8.33;;;;;12.15;78.12;101898.94;5054992;28;45288;-80
2021/09/28 00:53:49;;;;;;;;;8.67;8.33;;;;;12.18;77.92;101906.63;5056757;28;46057;-80
2021/09/28 00:56:17;;;;;;;;;7.67;7.67;;;;;12.17;78.17;101904.94;5058955;28;45388;-80
2021/09/28 00:58:43;;;;;;;;;9.00;8.33;;;;;12.10;77.92;101907.41;5049663;28;47539;-80
2021/09/28 01:01:11;;;;;;;;;10.00;10.00;;;;;12.10;77.82;101902.06;5058717;28;45400;-80
2021/09/28 01:03:37;;;;;;;;;11.33;10.67;;;;;12.10;77.92;101908.22;5060132;28;46259;-80
2021/09/28 01:06:03;;;;;;;;;8.00;8.00;;;;;12.08;78.23;101904.03;5055422;28;45307;-80
2021/09/28 01:08:29;;;;;;;;;9.33;9.33;;;;;12.11;78.54;101904.59;5057172;28;45461;-80
2021/09/28 01:10:55;;;;;;;;;8.33;7.67;;;;;12.10;78.47;101894.09;5055892;28;45362;-80
2021/09/28 01:13:22;;;;;;;;;10.33;8.67;;;;;12.17;78.16;101904.94;5056822;28;46183;-80
2021/09/28 01:16:00;;;;;;;;;8.00;8.00;;;;;12.19;78.61;101901.16;5054021;28;45541;-80
2021/09/28 01:18:31;;;;;;;;;7.33;7.33;;;;;12.17;78.35;101887.13;5060779;28;45436;-80
2021/09/28 01:20:58;;;;;;;;;9.33;9.33;;;;;12.18;78.10;101890.63;5058106;28;45366;-80
2021/09/28 01:23:23;;;;;;;;;8.00;7.00;;;;;12.08;78.28;101878.25;5062489;28;46237;-80
2021/09/28 01:25:49;;;;;;;;;6.33;6.33;;;;;12.14;78.54;101882.09;5055914;28;45381;-80
2021/09/28 01:28:15;;;;;;;;;6.33;5.67;;;;;12.09;78.27;101869.25;5060259;28;45453;-80
2021/09/28 01:30:40;;;;;;;;;6.67;6.67;;;;;12.16;78.00;101874.81;5064554;28;45449;-80
2021/09/28 01:33:06;;;;;;;;;4.33;4.33;;;;;12.18;77.98;101880.78;5057755;28;45410;-80
2021/09/28 01:35:32;;;;;;;;;4.33;4.33;;;;;12.19;77.80;101882.50;5054655;28;45274;-80
2021/09/28 01:37:58;;;;;;;;;7.00;6.67;;;;;12.08;77.95;101866.75;5060298;28;45216;-80
2021/09/28 01:40:23;;;;;;;;;6.00;6.00;;;;;12.05;78.04;101873.19;5053873;28;45489;-79
2021/09/28 01:42:49;;;;;;;;;7.00;7.00;;;;;12.01;78.02;101871.84;5063465;28;46049;-79
2021/09/28 01:45:15;;;;;;;;;8.67;8.00;;;;;11.98;78.16;101862.31;5056531;28;45355;-80
2021/09/28 01:47:41;;;;;;;;;7.00;6.00;;;;;12.00;78.01;101879.00;5056544;28;46761;-80
2021/09/28 01:50:07;;;;;;;;;5.33;5.33;;;;;12.02;78.20;101875.31;5057286;28;45500;-80
2021/09/28 01:52:35;;;;;;;;;9.00;8.33;;;;;12.06;78.03;101877.53;5052097;28;46343;-80
2021/09/28 01:55:01;;;;;;;;;6.33;6.33;;;;;12.02;78.31;101864.66;5060224;28;45321;-80
2021/09/28 01:57:27;;;;;;;;;5.33;5.33;;;;;11.99;78.10;101857.84;5061339;28;45384;-79
2021/09/28 01:59:52;;;;;;;;;5.33;4.33;;;;;12.08;78.27;101874.72;5055380;28;45681;-79
2021/09/28 02:02:18;;;;;;;;;5.00;5.00;;;;;12.02;78.28;101862.84;5062118;28;45238;-79
2021/09/28 02:04:44;;;;;;;;;6.00;5.33;;;;;12.04;78.07;101871.53;5053029;28;45996;-79
2021/09/28 02:07:09;;;;;;;;;7.33;6.33;;;;;12.05;78.10;101864.34;5059622;28;45268;-79
2021/09/28 02:09:35;;;;;;;;;5.00;5.00;;;;;11.99;77.92;101858.69;5052386;28;45731;-79
2021/09/28 02:12:00;;;;;;;;;7.00;6.33;;;;;11.97;77.95;101855.31;5058411;28;45699;-80
2021/09/28 02:14:28;;;;;;;;;7.00;7.00;;;;;11.96;78.00;101852.81;5055006;28;45394;-80
2021/09/28 02:16:55;;;;;;;;;7.00;7.00;;;;;11.86;77.83;101847.59;5056403;28;45447;-79
2021/09/28 02:19:21;;;;;;;;;5.00;5.00;;;;;11.84;78.18;101850.41;5057991;28;45359;-79
2021/09/28 02:21:47;;;;;;;;;6.00;6.00;;;;;11.85;78.18;101845.91;5051153;28;45392;-79
2021/09/28 02:24:13;;;;;;;;;5.00;5.00;;;;;11.87;78.34;101855.44;5055553;28;45735;-79
2021/09/28 02:26:39;;;;;;;;;5.67;5.33;;;;;11.87;78.54;101858.09;5055233;28;45308;-79
2021/09/28 02:29:05;;;;;;;;;4.00;4.00;;;;;11.81;78.49;101856.03;5057960;28;45867;-79
2021/09/28 02:31:31;;;;;;;;;6.00;4.33;;;;;11.76;78.61;101836.19;5065184;28;45647;-79
2021/09/28 02:33:57;;;;;;;;;6.00;5.33;;;;;11.78;78.69;101844.84;5055617;28;45427;-79
2021/09/28 02:36:23;;;;;;;;;5.33;3.33;;;;;11.70;78.50;101832.34;5054837;28;45406;-79
2021/09/28 02:38:49;;;;;;;;;2.67;2.67;;;;;11.80;78.44;101842.88;5054228;28;45366;-80
2021/09/28 02:41:15;;;;;;;;;2.67;2.67;;;;;11.80;78.33;101845.53;5059222;28;46173;-79
2021/09/28 02:43:40;;;;;;;;;5.00;3.33;;;;;11.82;78.36;101843.56;5057550;28;45281;-79
2021/09/28 02:46:06;;;;;;;;;4.00;4.00;;;;;11.78;77.97;101839.53;5058122;28;45269;-79
2021/09/28 02:48:32;;;;;;;;;3.33;2.00;;;;;11.71;78.30;101829.50;5056849;28;45165;-79
2021/09/28 02:50:58;;;;;;;;;4.33;2.33;;;;;11.68;78.29;101831.66;5061816;28;46018;-80
2021/09/28 02:53:24;;;;;;;;;2.67;2.67;;;;;11.63;78.42;101829.44;5061231;28;45289;-79
2021/09/28 02:55:49;;;;;;;;;4.00;4.00;;;;;11.64;78.27;101825.78;5061373;28;45378;-79
2021/09/28 02:58:15;;;;;;;;;4.00;4.00;;;;;11.64;78.24;101822.31;5061338;28;45524;-79
2021/09/28 03:00:41;;;;;;;;;4.33;4.00;;;;;11.62;78.40;101820.59;5061097;28;45342;-79
2021/09/28 03:03:06;;;;;;;;;6.00;5.00;;;;;11.56;78.12;101812.41;5061169;28;45318;-79
2021/09/28 03:05:32;;;;;;;;;5.00;4.33;;;;;11.60;78.22;101824.41;5061343;28;45408;-79
2021/09/28 03:07:57;;;;;;;;;6.33;5.33;;;;;11.59;78.17;101826.25;5061069;28;45288;-79
2021/09/28 03:10:23;;;;;;;;;11.67;6.67;;;;;11.59;78.09;101820.09;5060908;28;45317;-79
2021/09/28 03:12:49;;;;;;;;;9.00;7.00;;;;;11.58;78.01;101823.72;5061680;28;45354;-79
2021/09/28 03:15:16;;;;;;;;;7.67;6.67;;;;;11.54;77.93;101822.38;5061419;28;45229;-79
2021/09/28 03:17:42;;;;;;;;;11.67;11.33;;;;;11.49;77.83;101822.81;5061502;28;45285;-79
2021/09/28 03:20:08;;;;;;;;;11.67;11.67;;;;;11.42;78.09;101822.63;5061846;28;45162;-79
2021/09/28 03:22:34;;;;;;;;;10.33;10.33;;;;;11.42;78.51;101830.59;5062634;28;45196;-79
2021/09/28 03:24:59;;;;;;;;;9.67;9.67;;;;;11.40;78.57;101821.94;5062447;28;45331;-79
2021/09/28 03:27:25;;;;;;;;;13.33;10.33;;;;;11.39;78.38;101820.25;5062027;28;45288;-79
2021/09/28 03:29:50;;;;;;;;;8.00;8.00;;;;;11.36;78.18;101810.75;5066171;28;45433;-79
2021/09/28 03:32:16;;;;;;;;;7.00;7.00;;;;;11.37;78.24;101822.22;5082444;28;45326;-79
2021/09/28 03:34:42;;;;;;;;;7.67;7.67;;;;;11.39;78.47;101825.59;5082893;28;45363;-79
2021/09/28 03:37:07;;;;;;;;;9.67;9.67;;;;;11.37;78.15;101816.91;5081035;27;45366;-79
2021/09/28 03:39:33;;;;;;;;;9.00;9.00;;;;;11.36;78.23;101821.41;5081117;28;46086;-79
2021/09/28 03:41:59;;;;;;;;;8.67;8.00;;;;;11.30;77.93;101811.38;5081759;28;45445;-79
2021/09/28 03:44:24;;;;;;;;;7.33;7.33;;;;;11.29;77.88;101823.03;5082343;28;45270;-79
2021/09/28 03:46:50;;;;;;;;;10.00;10.00;;;;;11.25;77.91;101818.97;5082918;28;45486;-79
2021/09/28 03:49:15;;;;;;;;;7.67;7.67;;;;;11.18;78.23;101810.75;5082790;27;45214;-80
2021/09/28 03:51:41;;;;;;;;;7.00;7.00;;;;;11.17;78.12;101816.25;5082573;28;45608;-80
2021/09/28 03:54:07;;;;;;;;;6.00;6.00;;;;;11.11;78.22;101812.38;5082919;28;45390;-79
2021/09/28 03:56:32;;;;;;;;;9.33;8.67;;;;;11.09;78.27;101801.03;5082549;27;45472;-79
2021/09/28 03:58:58;;;;;;;;;7.33;7.33;;;;;11.10;78.19;101805.34;5082895;27;46072;-79
2021/09/28 04:01:24;;;;;;;;;6.67;6.67;;;;;11.07;78.44;101810.97;5082370;28;45329;-79
2021/09/28 04:03:49;;;;;;;;;6.00;6.00;;;;;11.04;78.21;101811.31;5085170;27;45456;-79
2021/09/28 04:06:15;;;;;;;;;8.00;8.00;;;;;11.05;78.19;101810.31;5083166;28;45477;-79
2021/09/28 04:08:40;;;;;;;;;7.33;7.00;;;;;10.99;78.25;101801.09;5085477;28;45384;-80
2021/09/28 04:11:06;;;;;;;;;8.00;7.33;;;;;10.98;78.34;101810.91;5085964;27;45295;-79
2021/09/28 04:13:32;;;;;;;;;7.67;7.00;;;;;10.95;78.40;101802.38;5085950;27;45476;-80
2021/09/28 04:15:59;;;;;;;;;10.67;10.67;;;;;10.96;78.30;101807.53;5087532;28;45349;-79
2021/09/28 04:18:25;;;;;;;;;10.00;10.00;;;;;10.87;78.29;101789.84;5087777;28;45229;-79
2021/09/28 04:20:51;;;;;;;;;7.67;7.67;;;;;10.94;78.73;101808.69;5088183;28;45165;-79
2021/09/28 04:23:16;;;;;;;;;9.67;9.67;;;;;10.93;78.56;101805.19;5088945;28;45282;-79
2021/09/28 04:25:43;;;;;;;;;9.33;9.33;;;;;10.91;78.66;101803.66;5087344;28;46187;-80
2021/09/28 04:28:09;;;;;;;;;12.00;12.00;;;;;10.96;78.59;101812.88;5088445;28;45374;-79
2021/09/28 04:30:35;;;;;;;;;10.00;9.00;;;;;10.92;78.64;101802.69;5077770;28;45356;-79
2021/09/28 04:33:01;;;;;;;;;9.67;9.67;;;;;10.95;78.70;101819.19;5067457;28;45354;-80
2021/09/28 04:35:28;;;;;;;;;9.67;9.00;;;;;10.91;78.71;101806.31;5068642;28;45513;-80
2021/09/28 04:37:54;;;;;;;;;7.00;7.00;;;;;10.98;78.87;101816.22;5067653;28;45417;-80
2021/09/28 04:40:19;;;;;;;;;7.33;7.00;;;;;10.98;78.71;101810.91;5067928;28;45408;-79
2021/09/28 04:42:45;;;;;;;;;5.67;5.00;;;;;11.02;78.80;101807.94;5066215;28;45453;-79
2021/09/28 04:45:11;;;;;;;;;6.33;6.33;;;;;11.03;78.81;101815.78;5065769;28;45370;-80
2021/09/28 04:47:37;;;;;;;;;7.00;7.00;;;;;10.89;78.89;101793.19;5065034;28;45228;-80
2021/09/28 04:50:04;;;;;;;;;8.33;7.67;;;;;10.97;78.98;101795.94;5064743;28;45229;-80
2021/09/28 04:52:29;;;;;;;;;7.00;6.67;;;;;11.04;78.36;101817.44;5065322;28;45341;-80
2021/09/28 04:54:55;;;;;;;;;10.00;10.00;;;;;11.04;78.69;101806.81;5065933;28;45366;-80
2021/09/28 04:57:21;;;;;;;;;13.00;12.00;;;;;11.04;78.83;101811.31;5066220;28;46388;-80
2021/09/28 04:59:48;;;;;;;;;12.33;12.33;;;;;10.99;78.99;101801.94;5069131;28;45292;-80
2021/09/28 05:02:14;;;;;;;;;13.00;12.67;;;;;11.03;78.75;101809.59;5068819;28;45467;-80
2021/09/28 05:04:40;;;;;;;;;11.67;10.67;;;;;11.04;78.64;101803.31;5068543;28;45443;-80
2021/09/28 05:07:06;;;;;;;;;13.00;13.00;;;;;11.03;78.35;101802.47;5066858;28;45280;-80
2021/09/28 05:09:32;;;;;;;;;9.67;9.67;;;;;11.06;78.60;101811.97;5067245;28;45333;-80
2021/09/28 05:11:59;;;;;;;;;11.00;11.00;;;;;11.02;78.72;101805.28;5067942;28;45283;-79
2021/09/28 05:14:26;;;;;;;;;8.33;8.00;;;;;11.04;78.59;101813.97;5068750;28;45610;-80
2021/09/28 05:16:51;;;;;;;;;10.33;10.00;;;;;10.98;78.25;101800.25;5070578;28;45995;-80
2021/09/28 05:19:17;;;;;;;;;11.00;9.00;;;;;10.99;78.51;101807.25;5068651;28;45403;-80
2021/09/28 05:21:43;;;;;;;;;7.67;7.67;;;;;10.99;78.52;101809.91;5070345;28;45353;-80
2021/09/28 05:24:08;;;;;;;;;6.00;6.00;;;;;10.98;78.57;101810.91;5070484;28;45333;-79
2021/09/28 05:26:34;;;;;;;;;10.33;9.67;;;;;10.99;78.76;101814.41;5070256;28;45395;-80
2021/09/28 05:29:01;;;;;;;;;7.00;6.00;;;;;10.97;78.85;101811.91;5072720;28;45153;-80
2021/09/28 05:31:27;;;;;;;;;5.33;5.00;;;;;10.97;78.70;101811.06;5075019;28;45224;-80
2021/09/28 05:33:52;;;;;;;;;7.33;7.33;;;;;11.01;78.30;101814.25;5074008;28;45272;-80
2021/09/28 05:36:18;;;;;;;;;7.67;6.67;;;;;10.98;78.73;101812.72;5071733;28;45441;-80
2021/09/28 05:38:43;;;;;;;;;6.67;6.67;;;;;10.97;78.65;101811.91;5072693;28;45454;-80
2021/09/28 05:41:09;;;;;;;;;5.00;5.00;;;;;10.93;78.66;101810.50;5067284;28;45584;-79
2021/09/28 05:43:36;;;;;;;;;7.00;7.00;;;;;10.92;78.78;101808.03;5074486;28;45464;-81
2021/09/28 05:46:02;;;;;;;;;6.00;5.67;;;;;10.89;78.93;101816.31;5073492;28;45351;-80
2021/09/28 05:48:28;;;;;;;;;7.00;7.00;;;;;10.89;78.87;101800.34;5074906;28;45442;-80
2021/09/28 05:50:54;;;;;;;;;5.00;5.00;;;;;10.97;78.67;101814.56;5070829;28;45404;-80
2021/09/28 05:53:19;;;;;;;;;8.33;7.33;;;;;10.96;78.97;101812.03;5064042;28;45346;-80
2021/09/28 05:55:45;;;;;;;;;5.67;5.67;;;;;11.02;78.92;101819.44;5063624;28;45329;-81
2021/09/28 05:58:11;;;;;;;;;7.00;7.00;;;;;10.96;79.08;101801.41;5062369;28;45376;-81
2021/09/28 06:00:36;;;;;;;;;7.00;7.00;;;;;11.04;78.98;101800.66;5065304;28;45240;-82
2021/09/28 06:03:03;;;;;;;;;6.00;6.00;;;;;11.06;79.04;101798.66;5064063;28;45244;-81
2021/09/28 06:05:28;;;;;;;;;9.00;9.00;;;;;11.06;78.96;101794.19;5063161;28;45274;-82
2021/09/28 06:07:54;;;;;;;;;32.67;29.67;;;;;11.14;79.10;101804.09;5066835;28;45216;-80
2021/09/28 06:10:20;;;;;;;;;44.00;35.75;;;;;11.13;78.75;101799.72;5066053;28;45374;-82
2021/09/28 06:12:45;;;;;;;;;47.00;39.25;;;;;11.20;79.05;101813.28;5065200;28;45287;-79
2021/09/28 06:15:11;;;;;;;;;48.75;38.75;;;;;11.22;79.17;101811.28;5063947;28;45936;-80
2021/09/28 06:17:37;;;;;;;;;48.50;39.75;;;;;11.20;79.08;101800.78;5066161;28;45343;-82
2021/09/28 06:20:04;;;;;;;;;54.25;43.00;;;;;11.19;79.43;101795.63;5067557;28;45371;-81
2021/09/28 06:22:29;;;;;;;;;54.00;44.00;;;;;11.27;79.20;101817.00;5066092;28;45272;-82
2021/09/28 06:24:55;;;;;;;;;48.00;40.00;;;;;11.14;79.08;101785.47;5066247;28;45758;-85
2021/09/28 06:27:22;;;;;;;;;46.25;38.50;;;;;11.30;79.53;101791.91;5064154;28;45378;-83
2021/09/28 06:29:48;;;;;;;;;43.00;35.50;;;;;11.39;79.46;101804.28;5065376;28;45291;-82
2021/09/28 06:32:16;;;;;;;;;34.00;30.67;;;;;11.37;79.56;101787.63;5071608;28;45297;-80
2021/09/28 06:34:42;;;;;;;;;16.33;14.67;;;;;11.47;79.32;101795.53;5071219;28;45299;-84
2021/09/28 06:37:08;;;;;;;;;15.67;13.67;;;;;11.56;79.52;101807.09;5062091;28;45390;-83
2021/09/28 06:39:34;;;;;;;;;14.67;14.67;;;;;11.56;79.42;101791.97;5062253;28;45264;-83
2021/09/28 06:42:00;;;;;;;;;11.00;11.00;;;;;11.62;79.01;101801.16;5063519;28;45326;-81
2021/09/28 06:44:26;;;;;;;;;12.00;11.00;;;;;11.70;79.19;101803.84;5063865;28;45341;-81
2021/09/28 06:46:52;;;;;;;;;10.67;10.67;;;;;11.74;79.08;101799.88;5066934;28;45366;-81
2021/09/28 06:49:17;;;;;;;;;7.33;7.33;;;;;11.78;79.11;101800.41;5060639;28;45509;-81
2021/09/28 06:51:43;;;;;;;;;7.00;6.00;;;;;11.89;79.48;101806.47;5054754;28;45501;-81
2021/09/28 06:54:09;;;;;;;;;6.00;5.33;;;;;11.93;79.23;101800.69;5067285;28;45294;-80
2021/09/28 06:56:34;;;;;;;;;6.00;6.00;;;;;11.92;79.17;101798.19;5068458;28;45410;-80
2021/09/28 06:59:00;;;;;;;;;5.67;5.33;;;;;11.92;79.26;101798.19;5072670;28;45386;-80
2021/09/28 07:01:26;;;;;;;;;4.67;4.67;;;;;11.93;79.19;101794.50;5070096;28;45315;-81
2021/09/28 07:03:52;;;;;;;;;5.33;4.33;;;;;11.97;79.09;101787.88;5065146;28;47153;-81
2021/09/28 07:06:18;;;;;;;;;3.33;3.33;;;;;11.98;79.31;101785.03;5068658;28;45430;-81
2021/09/28 07:08:44;;;;;;;;;6.67;5.67;;;;;12.03;79.51;101776.59;5070665;28;45629;-81
2021/09/28 07:11:09;;;;;;;;;4.33;4.33;;;;;12.05;79.37;101779.09;5062185;28;47212;-82
2021/09/28 07:13:35;;;;;;;;;6.00;5.00;;;;;12.17;79.53;101795.66;5041624;28;45259;-82
2021/09/28 07:16:00;;;;;;;;;5.00;4.33;;;;;12.13;78.99;101779.19;5059568;28;45554;-84
2021/09/28 07:18:26;;;;;;;;;6.33;4.33;;;;;12.23;79.20;101795.03;5060432;28;45461;-80
2021/09/28 07:20:51;;;;;;;;;13.33;13.33;;;;;12.22;79.15;101794.19;5061851;28;45184;-79
2021/09/28 07:23:17;;;;;;;;;7.00;7.00;;;;;12.31;79.24;101800.44;5061890;28;45235;-79
2021/09/28 07:25:43;;;;;;;;;4.67;4.67;;;;;12.35;79.33;101806.25;5061903;28;45275;-83
2021/09/28 07:28:08;;;;;;;;;3.00;3.00;;;;;12.30;79.25;101789.91;5058025;28;45310;-81
2021/09/28 07:30:35;;;;;;;;;5.00;5.00;;;;;12.45;78.94;101804.28;5069614;28;46603;-81
2021/09/28 07:33:01;;;;;;;;;4.00;4.00;;;;;12.48;78.80;101803.97;5076572;28;45850;-80
2021/09/28 07:35:28;;;;;;;;;5.00;5.00;;;;;12.50;78.90;101790.47;5059575;28;45362;-80
2021/09/28 07:37:54;;;;;;;;;6.00;5.33;;;;;12.60;79.20;101804.53;5059790;28;45363;-80
2021/09/28 07:40:20;;;;;;;;;4.67;4.67;;;;;12.68;79.16;101805.53;5060205;28;45295;-81
2021/09/28 07:42:46;;;;;;;;;7.67;5.33;;;;;12.73;78.62;101801.41;5060329;28;46235;-80
2021/09/28 07:45:13;;;;;;;;;4.67;4.00;;;;;12.76;78.98;101794.91;5060323;28;45236;-81
2021/09/28 07:47:38;;;;;;;;;3.67;3.67;;;;;12.88;79.25;101798.91;5060274;28;45405;-81
2021/09/28 07:50:05;;;;;;;;;8.00;7.00;;;;;12.95;79.09;101807.13;5058782;28;45469;-81
2021/09/28 07:52:31;;;;;;;;;5.33;5.33;;;;;13.02;78.66;101809.94;5059919;28;45352;-80
2021/09/28 07:54:56;;;;;;;;;5.00;5.00;;;;;13.03;78.85;101806.31;5059468;28;45354;-79
2021/09/28 07:57:22;;;;;;;;;4.67;4.67;;;;;13.08;78.57;101803.97;5059160;28;45299;-79
2021/09/28 07:59:47;;;;;;;;;4.67;4.00;;;;;13.12;78.69;101799.97;5059948;28;45428;-78
2021/09/28 08:02:13;;;;;;;;;4.00;3.00;;;;;13.15;78.75;101804.16;5060130;28;45316;-80
2021/09/28 08:04:40;;;;;;;;;5.00;4.33;;;;;13.20;77.83;101801.81;5060225;28;45320;-79
2021/09/28 08:07:12;;;;;;;;;5.00;5.00;;;;;13.25;78.03;101798.63;5060157;28;45303;-79
2021/09/28 08:09:38;;;;;;;;;8.00;7.00;;;;;13.32;78.24;101798.81;5058970;28;45359;-79
2021/09/28 08:12:05;;;;;;;;;5.00;5.00;;;;;13.40;78.34;101796.13;5059609;28;45284;-78
2021/09/28 08:14:30;;;;;;;;;5.00;5.00;;;;;13.41;78.03;101800.47;5060018;28;45212;-79
2021/09/28 08:16:56;;;;;;;;;4.67;3.67;;;;;13.48;78.33;101804.16;5060195;28;45455;-79
2021/09/28 08:19:22;;;;;;;;;3.00;3.00;;;;;13.53;78.03;101798.31;5060093;28;45513;-79
2021/09/28 08:21:47;;;;;;;;;3.33;3.33;;;;;13.66;78.22;101808.50;5059906;28;46044;-79
2021/09/28 08:24:13;;;;;;;;;3.00;3.00;;;;;13.72;77.74;101801.66;5060009;28;45219;-78
2021/09/28 08:29:23;;;;;;;;;3.33;3.33;;;;;13.82;77.70;101796.13;5060517;28;45284;-79
2021/09/28 08:31:49;;;;;;;;;3.00;2.33;;;;;13.81;77.18;101778.44;5078738;28;46176;-79
2021/09/28 08:34:16;;;;;;;;;3.67;3.00;;;;;13.88;77.59;101790.94;5080217;27;45350;-79
2021/09/28 08:36:43;;;;;;;;;4.00;3.33;;;;;13.98;77.63;101793.41;5080150;28;45461;-79
2021/09/28 08:39:15;;;;;;;;;3.00;3.00;;;;;14.01;77.36;101800.28;5079843;28;45278;-79
2021/09/28 08:41:44;;;;;;;;;3.67;3.67;;;;;14.07;77.25;101801.44;5080067;28;45301;-79
2021/09/28 08:44:10;;;;;;;;;4.67;3.00;;;;;14.10;77.63;101788.53;5079988;28;45164;-79
2021/09/28 08:46:35;;;;;;;;;5.00;3.00;;;;;14.20;78.07;101801.72;5083144;28;45144;-79
2021/09/28 08:49:01;;;;;;;;;3.00;3.00;;;;;14.23;77.19;101784.50;5086494;28;45464;-79
2021/09/28 08:51:28;;;;;;;;;3.00;3.00;;;;;14.29;77.01;101783.81;5086604;27;45302;-79
2021/09/28 08:53:54;;;;;;;;;2.67;2.67;;;;;14.37;76.74;101791.78;5086505;28;45251;-79
2021/09/28 08:56:19;;;;;;;;;4.00;3.00;;;;;14.44;76.45;101789.25;5086651;28;45243;-79
2021/09/28 08:58:57;;;;;;;;;2.00;2.00;;;;;14.54;76.63;101799.72;5086569;28;45279;-79
2021/09/28 09:01:23;;;;;;;;;2.00;2.00;;;;;14.61;76.18;101799.88;5086613;27;45271;-79
2021/09/28 09:03:49;;;;;;;;;4.33;3.67;;;;;14.64;76.49;101799.53;5085056;28;45393;-79
2021/09/28 09:06:15;;;;;;;;;5.33;3.00;;;;;14.70;77.22;101793.44;5086496;27;45333;-79
2021/09/28 09:08:42;;;;;;;;;2.33;2.33;;;;;14.80;76.71;101785.25;5086489;28;45176;-79
2021/09/28 09:11:13;;;;;;;;;3.67;3.00;;;;;14.85;77.13;101782.84;5086128;28;46155;-79
2021/09/28 09:13:42;;;;;;;;;2.67;2.67;;;;;15.00;77.07;101796.31;5086408;27;45356;-79
2021/09/28 09:16:13;;;;;;;;;2.33;2.33;;;;;15.10;76.76;101793.41;5086567;28;45283;-79
2021/09/28 09:18:39;;;;;;;;;2.67;2.00;;;;;15.17;76.39;101784.66;5086341;27;45292;-79
2021/09/28 09:21:06;;;;;;;;;4.00;4.00;;;;;15.26;76.41;101789.75;5086112;28;45294;-79
2021/09/28 09:23:36;;;;;;;;;2.33;2.33;;;;;15.34;76.26;101786.19;5086167;27;45217;-79
2021/09/28 09:26:11;;;;;;;;;3.67;2.33;;;;;15.39;75.96;101789.16;5086179;27;45286;-79
2021/09/28 09:28:41;;;;;;;;;3.00;1.33;;;;;15.52;75.77;101791.22;5086010;28;45295;-79
2021/09/28 09:31:12;;;;;;;;;1.67;1.67;;;;;15.61;74.96;101788.47;5070736;28;45345;-78
2021/09/28 09:33:43;;;;;;;;;4.00;2.00;;;;;15.63;74.23;101786.44;5065878;28;45435;-78
2021/09/28 09:36:10;;;;;;;;;1.33;1.00;;;;;15.71;73.92;101789.03;5065851;28;45288;-78
2021/09/28 09:38:44;;;;;;;;;4.00;3.00;;;;;15.81;73.74;101777.22;5065510;28;45334;-79
2021/09/28 09:41:10;;;;;;;;;4.00;4.00;;;;;15.86;74.26;101767.59;5065418;28;46166;-79
2021/09/28 09:43:36;;;;;;;;;1.00;1.00;;;;;15.93;74.52;101772.22;5065737;28;45276;-79
2021/09/28 09:46:19;;;;;;;;;2.00;2.00;;;;;15.99;73.96;101767.00;5065862;28;45553;-79
2021/09/28 09:48:47;;;;;;;;;1.67;1.33;;;;;16.04;73.77;101761.06;5065304;28;45405;-79
2021/09/28 09:51:18;;;;;;;;;2.00;2.00;;;;;16.06;73.93;101748.31;5065061;28;46154;-79
2021/09/28 09:54:00;;;;;;;;;2.67;2.67;;;;;16.17;73.19;101756.88;5065301;28;45307;-80
2021/09/28 09:56:49;;;;;;;;;2.00;2.00;;;;;16.25;73.04;101749.56;5065420;28;45403;-81
2021/09/28 09:59:17;;;;;;;;;2.00;2.00;;;;;16.27;73.62;101744.00;5061363;28;45571;-81
2021/09/28 10:01:44;;;;;;;;;1.00;1.00;;;;;16.37;74.07;101746.41;5061433;28;46198;-80
2021/09/28 10:04:14;;;;;;;;;4.67;3.00;;;;;16.39;73.64;101742.53;5062084;28;45264;-80
2021/09/28 10:06:41;;;;;;;;;0.67;0.67;;;;;16.52;73.80;101746.34;5062199;28;45401;-81
2021/09/28 10:09:13;;;;;;;;;1.00;1.00;;;;;16.59;73.32;101746.44;5061871;28;45303;-81
2021/09/28 10:11:40;;;;;;;;;1.33;1.33;;;;;16.62;71.22;101740.69;5061614;28;46106;-82
2021/09/28 10:14:06;;;;;;;;;1.67;1.00;;;;;16.73;71.89;101740.19;5061946;28;45310;-82
2021/09/28 10:16:40;;;;;;;;;1.67;1.33;;;;;16.82;70.91;101735.50;5061742;28;45464;-79
2021/09/28 10:19:29;;;;;;;;;2.00;2.00;;;;;16.89;70.93;101740.97;5061386;28;45469;-80
2021/09/28 10:21:59;;;;;;;;;2.67;2.67;;;;;16.93;69.76;101734.19;5041333;28;46049;-80
2021/09/28 10:24:29;;;;;;;;;1.00;1.00;;;;;17.03;70.95;101739.25;5056727;28;45391;-80
2021/09/28 10:27:01;;;;;;;;;1.00;1.00;;;;;17.16;70.77;101738.53;5062369;28;45228;-78
2021/09/28 10:29:51;;;;;;;;;2.00;2.00;;;;;17.25;71.46;101736.53;5062539;28;45778;-80
2021/09/28 10:32:22;;;;;;;;;3.00;2.00;;;;;17.37;70.31;101735.00;5046433;28;45330;-79
2021/09/28 10:35:09;;;;;;;;;2.33;1.67;;;;;17.46;70.37;101732.16;5056383;28;45437;-78
2021/09/28 10:37:50;;;;;;;;;0.67;0.67;;;;;17.56;68.91;101729.09;5065861;28;45240;-80
2021/09/28 10:40:18;;;;;;;;;4.33;2.67;;;;;17.64;66.54;101720.88;5063109;28;45521;-80
2021/09/28 10:43:01;;;;;;;;;2.00;2.00;;;;;17.72;68.39;101720.72;5063161;28;45393;-80
2021/09/28 10:45:29;;;;;;;;;1.33;0.67;;;;;17.85;68.60;101722.66;5060278;28;45284;-82
2021/09/28 10:48:31;;;;;;;;;1.67;1.67;;;;;18.02;69.84;101720.47;5061165;28;45404;-81
2021/09/28 10:51:09;;;;;;;;;4.67;3.33;;;;;18.15;67.55;101710.81;5061271;28;45386;-82
2021/09/28 10:53:43;;;;;;;;;0.33;0.33;;;;;18.24;68.28;101709.63;5061743;28;45231;-81
2021/09/28 10:56:17;;;;;;;;;2.00;1.67;;;;;18.35;66.72;101718.94;5059930;28;45379;-82
2021/09/28 10:59:02;;;;;;;;;3.00;2.00;;;;;18.37;67.06;101708.81;5061452;28;45269;-81
2021/09/28 11:01:33;;;;;;;;;2.00;0.33;;;;;18.45;68.37;101713.19;5060850;28;45466;-83
2021/09/28 11:04:14;;;;;;;;;0.33;0.00;;;;;18.59;67.52;101719.44;5060044;28;46229;-80
2021/09/28 11:06:46;;;;;;;;;0.67;0.67;;;;;18.57;65.03;101704.50;5060249;28;45295;-81
2021/09/28 11:09:17;;;;;;;;;1.33;1.33;;;;;18.63;64.72;101717.16;5060687;28;45605;-80
2021/09/28 11:11:46;;;;;;;;;1.33;1.00;;;;;18.60;66.11;101707.63;5061478;28;45230;-82
2021/09/28 11:14:12;;;;;;;;;2.67;2.67;;;;;18.74;66.07;101711.16;5057551;28;46140;-81
2021/09/28 11:16:56;;;;;;;;;3.00;1.33;;;;;18.77;62.02;101712.63;5061138;28;45379;-81
2021/09/28 11:19:23;;;;;;;;;1.00;1.00;;;;;18.84;64.85;101716.16;5059058;28;45398;-81
2021/09/28 11:21:49;;;;;;;;;1.67;1.67;;;;;18.85;64.40;101706.22;5059399;28;45535;-82
2021/09/28 11:24:19;;;;;;;;;0.67;0.67;;;;;18.86;63.23;101710.56;5059933;28;46115;-81